Time;durP1;ratioP1;P1;durP2;ratioP2;P2;SDS_P1;SDS_P2;PMS_P1;PMS_P2;Temp;Humidity;BMP_temperature;BMP_pressure;BME280_temperature;BME280_humidity;BME280_pressure;Samples;Min_cycle;Max_cycle;Signal;HPM_P1;HPM_P2
2023/01/06 00:01:37;;;;;;;;;;;21.10;40.80;;;;;;457790;257;1712;-45
2023/01/06 00:03:38;;;;;;;;;;;21.10;40.70;;;;;;465499;252;2213;-45
2023/01/06 00:05:39;;;;;;;;;;;21.10;40.70;;;;;;475561;249;1777;-45
2023/01/06 00:07:42;;;;;;;;;;;21.00;40.80;;;;;;457882;255;1644;-45
2023/01/06 00:09:42;;;;;;;;;;;21.00;40.80;;;;;;465580;252;2187;-45
2023/01/06 00:11:43;;;;;;;;;;;21.00;40.80;;;;;;475445;249;1898;-45
2023/01/06 00:13:45;;;;;;;;;;;21.00;40.80;;;;;;458056;256;1702;-45
2023/01/06 00:15:46;;;;;;;;;;;21.10;40.90;;;;;;465493;252;1769;-45
2023/01/06 00:17:48;;;;;;;;;;;21.10;40.80;;;;;;475531;249;1803;-45
2023/01/06 00:19:49;;;;;;;;;;;21.10;40.80;;;;;;457933;256;1890;-45
2023/01/06 00:21:50;;;;;;;;;;;21.10;40.80;;;;;;465411;252;1811;-45
2023/01/06 00:23:52;;;;;;;;;;;21.20;40.60;;;;;;475545;249;2184;-45
2023/01/06 00:25:53;;;;;;;;;;;21.40;40.20;;;;;;457844;256;1739;-45
2023/01/06 00:27:55;;;;;;;;;;;21.70;39.80;;;;;;465493;252;1741;-45
2023/01/06 00:29:56;;;;;;;;;;;21.80;39.40;;;;;;475562;249;2163;-45
2023/01/06 00:31:57;;;;;;;;;;;22.00;39.20;;;;;;457873;255;1847;-45
2023/01/06 00:33:59;;;;;;;;;;;22.10;39.00;;;;;;465529;252;1767;-45
2023/01/06 00:36:00;;;;;;;;;;;22.20;38.80;;;;;;475409;249;1785;-45
2023/01/06 00:38:01;;;;;;;;;;;22.20;38.60;;;;;;457873;257;1754;-45
2023/01/06 00:40:03;;;;;;;;;;;22.30;38.50;;;;;;465582;252;1832;-45
2023/01/06 00:42:04;;;;;;;;;;;22.40;38.40;;;;;;475404;249;2245;-45
2023/01/06 00:44:05;;;;;;;;;;;22.40;38.30;;;;;;457941;257;2209;-45
2023/01/06 00:46:06;;;;;;;;;;;22.50;38.20;;;;;;465516;252;2237;-45
2023/01/06 00:48:08;;;;;;;;;;;22.50;38.10;;;;;;475604;249;2039;-45
2023/01/06 00:50:09;;;;;;;;;;;22.60;38.00;;;;;;457993;256;1802;-45
2023/01/06 00:52:11;;;;;;;;;;;22.60;37.90;;;;;;465501;252;1733;-45
2023/01/06 00:54:12;;;;;;;;;;;22.60;37.90;;;;;;475626;249;1982;-45
2023/01/06 00:56:13;;;;;;;;;;;22.70;37.80;;;;;;457889;256;1759;-45
2023/01/06 00:58:14;;;;;;;;;;;22.70;37.80;;;;;;465558;252;2044;-45
2023/01/06 01:00:16;;;;;;;;;;;22.80;37.70;;;;;;475586;249;2268;-45
2023/01/06 01:02:17;;;;;;;;;;;22.80;37.70;;;;;;457951;256;1972;-45
2023/01/06 01:04:19;;;;;;;;;;;22.80;37.60;;;;;;465557;252;2260;-45
2023/01/06 01:06:20;;;;;;;;;;;22.80;37.60;;;;;;475603;249;1872;-45
2023/01/06 01:08:21;;;;;;;;;;;22.90;37.60;;;;;;457895;256;1882;-45
2023/01/06 01:10:22;;;;;;;;;;;22.90;37.50;;;;;;465601;252;2038;-45
2023/01/06 01:12:24;;;;;;;;;;;22.90;37.40;;;;;;475631;249;2220;-45
2023/01/06 01:14:25;;;;;;;;;;;23.00;37.40;;;;;;457980;257;1819;-45
2023/01/06 01:16:26;;;;;;;;;;;23.00;37.40;;;;;;465608;252;1839;-45
2023/01/06 01:18:28;;;;;;;;;;;23.00;37.30;;;;;;475564;249;2048;-45
2023/01/06 01:20:29;;;;;;;;;;;23.00;37.30;;;;;;458066;256;1706;-45
2023/01/06 01:22:30;;;;;;;;;;;23.00;37.20;;;;;;465582;252;1784;-45
2023/01/06 01:24:32;;;;;;;;;;;23.10;37.30;;;;;;475595;249;2200;-44
2023/01/06 01:26:33;;;;;;;;;;;23.10;37.30;;;;;;457913;256;1830;-45
2023/01/06 01:28:34;;;;;;;;;;;23.10;37.30;;;;;;465526;252;2107;-45
2023/01/06 01:30:36;;;;;;;;;;;23.10;37.20;;;;;;475618;249;1708;-45
2023/01/06 01:32:37;;;;;;;;;;;23.10;37.10;;;;;;457916;257;2217;-45
2023/01/06 01:34:38;;;;;;;;;;;23.20;37.20;;;;;;465573;252;1786;-45
2023/01/06 01:36:40;;;;;;;;;;;23.20;37.10;;;;;;475544;249;2072;-46
2023/01/06 01:38:41;;;;;;;;;;;23.20;37.10;;;;;;457978;256;1826;-43
2023/01/06 01:40:43;;;;;;;;;;;23.20;37.10;;;;;;465609;252;2239;-43
2023/01/06 01:42:44;;;;;;;;;;;23.20;37.10;;;;;;475673;249;2367;-43
2023/01/06 01:44:45;;;;;;;;;;;23.20;37.00;;;;;;457917;257;2190;-43
2023/01/06 01:46:46;;;;;;;;;;;23.20;37.00;;;;;;465625;252;1812;-42
2023/01/06 01:48:48;;;;;;;;;;;23.30;37.00;;;;;;475645;249;1748;-42
2023/01/06 01:50:49;;;;;;;;;;;23.30;37.00;;;;;;457916;256;1759;-43
2023/01/06 01:52:50;;;;;;;;;;;23.30;37.00;;;;;;465628;252;1944;-43
2023/01/06 01:54:52;;;;;;;;;;;23.30;36.90;;;;;;475579;249;2091;-43
2023/01/06 01:56:53;;;;;;;;;;;23.30;36.90;;;;;;457997;256;2195;-43
2023/01/06 01:58:54;;;;;;;;;;;23.30;36.90;;;;;;465591;252;1779;-43
2023/01/06 02:00:56;;;;;;;;;;;23.40;36.90;;;;;;475633;249;2191;-42
2023/01/06 02:02:57;;;;;;;;;;;23.40;36.90;;;;;;457942;257;2202;-43
2023/01/06 02:04:58;;;;;;;;;;;23.40;36.80;;;;;;465528;252;2061;-43
2023/01/06 02:07:00;;;;;;;;;;;23.40;36.90;;;;;;475631;249;1953;-43
2023/01/06 02:09:01;;;;;;;;;;;23.40;36.90;;;;;;457949;257;2024;-42
2023/01/06 02:11:02;;;;;;;;;;;23.40;36.90;;;;;;465680;252;1703;-45
2023/01/06 02:13:04;;;;;;;;;;;23.40;36.90;;;;;;475648;249;1711;-45
2023/01/06 02:15:05;;;;;;;;;;;23.40;36.90;;;;;;457988;257;2203;-44
2023/01/06 02:17:06;;;;;;;;;;;23.40;36.80;;;;;;465429;252;1802;-45
2023/01/06 02:19:08;;;;;;;;;;;23.50;36.90;;;;;;475582;249;2463;-44
2023/01/06 02:21:09;;;;;;;;;;;23.50;36.80;;;;;;457848;257;1726;-45
2023/01/06 02:23:10;;;;;;;;;;;23.50;36.80;;;;;;465581;252;2395;-45
2023/01/06 02:25:12;;;;;;;;;;;23.50;36.80;;;;;;475643;249;1792;-44
2023/01/06 02:27:13;;;;;;;;;;;23.50;36.80;;;;;;457809;257;1963;-45
2023/01/06 02:29:14;;;;;;;;;;;23.50;36.80;;;;;;465606;252;2005;-44
2023/01/06 02:31:16;;;;;;;;;;;23.50;36.80;;;;;;475417;249;1691;-45
2023/01/06 02:33:17;;;;;;;;;;;23.50;36.80;;;;;;457986;255;1732;-45
2023/01/06 02:35:18;;;;;;;;;;;23.50;36.80;;;;;;465588;252;1716;-45
2023/01/06 02:37:20;;;;;;;;;;;23.50;36.70;;;;;;475479;249;1727;-44
2023/01/06 02:39:21;;;;;;;;;;;23.60;36.80;;;;;;457941;257;1954;-45
2023/01/06 02:41:22;;;;;;;;;;;23.50;36.70;;;;;;465682;252;1668;-44
2023/01/06 02:43:24;;;;;;;;;;;23.50;36.80;;;;;;475610;249;2165;-44
2023/01/06 02:45:25;;;;;;;;;;;23.50;36.80;;;;;;457907;256;1862;-45
2023/01/06 02:47:26;;;;;;;;;;;23.30;37.00;;;;;;465420;252;1629;-45
2023/01/06 02:49:28;;;;;;;;;;;23.10;37.50;;;;;;475671;249;1708;-44
2023/01/06 02:51:29;;;;;;;;;;;22.80;37.90;;;;;;457783;256;1694;-45
2023/01/06 02:53:30;;;;;;;;;;;22.60;38.40;;;;;;465593;252;1841;-45
2023/01/06 02:55:32;;;;;;;;;;;22.40;38.70;;;;;;475582;249;1708;-45
2023/01/06 02:57:33;;;;;;;;;;;22.20;39.10;;;;;;457767;256;1712;-44
2023/01/06 02:59:35;;;;;;;;;;;22.10;39.30;;;;;;465548;252;1721;-44
2023/01/06 03:01:36;;;;;;;;;;;22.00;39.30;;;;;;475454;249;1900;-45
2023/01/06 03:03:37;;;;;;;;;;;21.90;39.50;;;;;;457902;257;2227;-45
2023/01/06 03:05:38;;;;;;;;;;;21.90;39.70;;;;;;465484;252;2462;-44
2023/01/06 03:07:40;;;;;;;;;;;21.80;39.90;;;;;;475500;249;1868;-44
2023/01/06 03:09:41;;;;;;;;;;;21.70;40.00;;;;;;458082;256;1956;-45
2023/01/06 03:11:42;;;;;;;;;;;21.70;40.10;;;;;;465431;252;2174;-45
2023/01/06 03:13:44;;;;;;;;;;;21.70;40.20;;;;;;475606;249;1874;-44
2023/01/06 03:15:45;;;;;;;;;;;21.60;40.30;;;;;;457902;256;2139;-44
2023/01/06 03:17:46;;;;;;;;;;;21.50;40.40;;;;;;465552;252;1841;-44
2023/01/06 03:19:48;;;;;;;;;;;21.50;40.40;;;;;;475677;249;3276;-44
2023/01/06 03:21:49;;;;;;;;;;;21.50;40.50;;;;;;457786;257;1707;-44
2023/01/06 03:23:50;;;;;;;;;;;21.50;40.40;;;;;;465652;252;2200;-45
2023/01/06 03:25:52;;;;;;;;;;;21.80;40.10;;;;;;475576;249;1747;-45
2023/01/06 03:27:53;;;;;;;;;;;22.00;39.60;;;;;;457873;255;1925;-44
2023/01/06 03:29:54;;;;;;;;;;;22.10;39.20;;;;;;465585;252;2155;-45
2023/01/06 03:31:56;;;;;;;;;;;22.40;38.90;;;;;;475457;249;1734;-44
2023/01/06 03:33:57;;;;;;;;;;;22.50;38.60;;;;;;457861;257;1750;-45
2023/01/06 03:35:58;;;;;;;;;;;22.60;38.50;;;;;;465451;252;2168;-45
2023/01/06 03:38:00;;;;;;;;;;;22.60;38.50;;;;;;475541;249;2216;-45
2023/01/06 03:40:01;;;;;;;;;;;22.50;38.50;;;;;;457947;256;1944;-44
2023/01/06 03:44:21;;;;;;;;;;;22.00;39.40;;;;;;475607;250;2459;-45
2023/01/06 03:46:23;;;;;;;;;;;21.80;39.70;;;;;;457795;257;1754;-44
2023/01/06 03:48:24;;;;;;;;;;;21.70;40.00;;;;;;465576;252;1847;-44
2023/01/06 03:50:25;;;;;;;;;;;21.60;40.20;;;;;;475641;249;2139;-44
2023/01/06 03:52:27;;;;;;;;;;;21.50;40.20;;;;;;457814;256;1738;-44
2023/01/06 03:54:28;;;;;;;;;;;21.40;40.40;;;;;;465635;252;1855;-44
2023/01/06 03:56:30;;;;;;;;;;;21.40;40.60;;;;;;475445;249;2199;-44
2023/01/06 03:58:31;;;;;;;;;;;21.30;40.60;;;;;;457929;257;1895;-44
2023/01/06 04:00:32;;;;;;;;;;;21.30;40.70;;;;;;465580;252;1739;-44
2023/01/06 04:02:34;;;;;;;;;;;21.30;40.80;;;;;;475402;249;1736;-44
2023/01/06 04:04:35;;;;;;;;;;;21.20;40.80;;;;;;457933;256;2179;-44
2023/01/06 04:06:36;;;;;;;;;;;21.20;40.90;;;;;;465578;252;1801;-44
2023/01/06 04:08:38;;;;;;;;;;;21.20;40.90;;;;;;475562;249;1811;-44
2023/01/06 04:10:39;;;;;;;;;;;21.10;41.00;;;;;;457888;257;1854;-44
2023/01/06 04:12:40;;;;;;;;;;;21.10;41.00;;;;;;465513;252;1751;-45
2023/01/06 04:14:42;;;;;;;;;;;21.00;41.10;;;;;;475654;249;1926;-44
2023/01/06 04:16:43;;;;;;;;;;;21.10;41.20;;;;;;457794;256;2070;-44
2023/01/06 04:18:45;;;;;;;;;;;21.00;41.20;;;;;;465571;252;1886;-44
2023/01/06 04:20:45;;;;;;;;;;;21.00;41.20;;;;;;475674;249;2261;-45
2023/01/06 04:22:47;;;;;;;;;;;21.30;40.90;;;;;;458094;256;1991;-45
2023/01/06 04:24:48;;;;;;;;;;;21.50;40.30;;;;;;465605;252;2243;-44
2023/01/06 04:26:49;;;;;;;;;;;21.70;39.90;;;;;;475612;249;2201;-45
2023/01/06 04:28:51;;;;;;;;;;;21.90;39.50;;;;;;457931;257;1876;-45
2023/01/06 04:30:52;;;;;;;;;;;22.10;39.20;;;;;;465584;252;1960;-45
2023/01/06 04:32:53;;;;;;;;;;;22.20;38.90;;;;;;475572;249;2722;-45
2023/01/06 04:34:55;;;;;;;;;;;22.30;38.70;;;;;;457871;257;1769;-45
2023/01/06 04:36:56;;;;;;;;;;;22.40;38.50;;;;;;465598;252;1938;-44
2023/01/06 04:38:57;;;;;;;;;;;22.50;38.40;;;;;;475756;249;1986;-45
2023/01/06 04:40:59;;;;;;;;;;;22.60;38.30;;;;;;457844;255;1829;-45
2023/01/06 04:43:03;;;;;;;;;;;22.60;38.10;;;;;;465527;252;1717;-45
2023/01/06 04:45:04;;;;;;;;;;;22.70;38.10;;;;;;475596;249;2240;-45
2023/01/06 04:47:06;;;;;;;;;;;22.80;38.00;;;;;;457806;257;2092;-44
2023/01/06 04:49:07;;;;;;;;;;;22.80;37.90;;;;;;465643;252;2156;-45
2023/01/06 04:51:08;;;;;;;;;;;22.80;37.80;;;;;;475486;249;1733;-45
2023/01/06 04:53:10;;;;;;;;;;;22.80;37.70;;;;;;457930;256;2289;-45
2023/01/06 04:55:11;;;;;;;;;;;22.90;37.70;;;;;;465672;252;2070;-45
2023/01/06 04:57:12;;;;;;;;;;;22.90;37.60;;;;;;475749;249;2125;-44
2023/01/06 04:59:14;;;;;;;;;;;23.00;37.50;;;;;;457968;257;2238;-45
2023/01/06 05:01:15;;;;;;;;;;;23.00;37.50;;;;;;465636;252;2075;-45
2023/01/06 05:03:16;;;;;;;;;;;23.00;37.40;;;;;;475613;249;1879;-44
2023/01/06 05:05:18;;;;;;;;;;;23.10;37.40;;;;;;457918;257;2229;-45
2023/01/06 05:07:19;;;;;;;;;;;23.10;37.30;;;;;;465577;252;1761;-45
2023/01/06 05:09:20;;;;;;;;;;;23.10;37.30;;;;;;475633;249;1952;-45
2023/01/06 05:11:22;;;;;;;;;;;23.20;37.30;;;;;;457995;255;2135;-45
2023/01/06 05:13:23;;;;;;;;;;;23.20;37.30;;;;;;465634;252;1842;-45
2023/01/06 05:15:24;;;;;;;;;;;23.20;37.20;;;;;;475559;249;1867;-45
2023/01/06 05:17:26;;;;;;;;;;;23.20;37.10;;;;;;457950;256;1933;-45
2023/01/06 05:19:27;;;;;;;;;;;23.20;37.10;;;;;;465584;252;1893;-44
2023/01/06 05:21:28;;;;;;;;;;;23.20;37.10;;;;;;475602;249;2394;-44
2023/01/06 05:23:30;;;;;;;;;;;23.30;37.10;;;;;;457972;257;2115;-45
2023/01/06 05:25:31;;;;;;;;;;;23.30;37.00;;;;;;465662;252;2174;-44
2023/01/06 05:27:32;;;;;;;;;;;23.30;37.00;;;;;;475671;249;2585;-45
2023/01/06 05:29:34;;;;;;;;;;;23.30;37.00;;;;;;457987;256;1778;-44
2023/01/06 05:31:35;;;;;;;;;;;23.30;36.90;;;;;;465679;252;2272;-45
2023/01/06 05:33:36;;;;;;;;;;;23.40;36.90;;;;;;475559;249;2206;-44
2023/01/06 05:35:37;;;;;;;;;;;23.40;36.90;;;;;;457950;256;1939;-45
2023/01/06 05:37:39;;;;;;;;;;;23.40;36.90;;;;;;465606;252;1729;-45
2023/01/06 05:39:40;;;;;;;;;;;23.40;36.80;;;;;;475637;249;1883;-45
2023/01/06 05:41:41;;;;;;;;;;;23.50;36.80;;;;;;457778;257;1876;-45
2023/01/06 05:43:43;;;;;;;;;;;23.50;36.80;;;;;;465622;252;1723;-45
2023/01/06 05:45:44;;;;;;;;;;;23.40;36.80;;;;;;475567;249;2212;-44
2023/01/06 05:47:45;;;;;;;;;;;23.20;37.30;;;;;;457875;257;2146;-44
2023/01/06 05:49:47;;;;;;;;;;;22.90;37.70;;;;;;465592;252;2139;-45
2023/01/06 05:51:48;;;;;;;;;;;22.60;38.10;;;;;;475497;249;1683;-44
2023/01/06 05:53:49;;;;;;;;;;;22.30;38.60;;;;;;457905;255;1862;-45
2023/01/06 05:55:51;;;;;;;;;;;22.30;38.90;;;;;;465532;252;2455;-44
2023/01/06 05:57:52;;;;;;;;;;;22.50;38.70;;;;;;475629;249;2428;-44
2023/01/06 05:59:54;;;;;;;;;;;22.60;38.40;;;;;;457959;257;1802;-45
2023/01/06 06:01:55;;;;;;;;;;;22.80;38.10;;;;;;465416;252;1710;-45
2023/01/06 06:03:56;;;;;;;;;;;22.80;37.90;;;;;;475561;249;2117;-44
2023/01/06 06:05:57;;;;;;;;;;;22.60;38.10;;;;;;457885;257;2552;-44
2023/01/06 06:07:59;;;;;;;;;;;22.40;38.50;;;;;;465499;252;1963;-44
2023/01/06 06:10:00;;;;;;;;;;;22.20;38.90;;;;;;475582;249;1912;-45
2023/01/06 06:12:01;;;;;;;;;;;22.00;39.30;;;;;;457803;257;1727;-44
2023/01/06 06:14:03;;;;;;;;;;;21.90;39.60;;;;;;465656;252;1734;-45
2023/01/06 06:16:04;;;;;;;;;;;21.80;39.90;;;;;;475640;249;2008;-44
2023/01/06 06:18:05;;;;;;;;;;;21.70;40.00;;;;;;457857;257;1727;-44
2023/01/06 06:20:07;;;;;;;;;;;21.60;40.10;;;;;;465534;252;1764;-44
2023/01/06 06:22:08;;;;;;;;;;;21.50;40.20;;;;;;475442;249;1735;-44
2023/01/06 06:24:09;;;;;;;;;;;21.50;40.30;;;;;;457967;257;1967;-45
2023/01/06 06:26:11;;;;;;;;;;;21.50;40.40;;;;;;465376;252;2205;-45
2023/01/06 06:28:12;;;;;;;;;;;21.40;40.40;;;;;;475614;249;1838;-44
2023/01/06 06:30:15;;;;;;;;;;;21.40;40.50;;;;;;457935;257;2083;-44
2023/01/06 06:32:15;;;;;;;;;;;21.30;40.60;;;;;;465402;252;2323;-44
2023/01/06 06:34:16;;;;;;;;;;;21.30;40.70;;;;;;475593;249;1692;-44
2023/01/06 06:36:17;;;;;;;;;;;21.30;40.70;;;;;;457839;256;1873;-44
2023/01/06 06:38:19;;;;;;;;;;;21.20;40.80;;;;;;465566;252;2183;-45
2023/01/06 06:40:20;;;;;;;;;;;21.10;40.90;;;;;;475592;249;1851;-45
2023/01/06 06:42:21;;;;;;;;;;;21.10;41.10;;;;;;457773;257;2778;-45
2023/01/06 06:44:23;;;;;;;;;;;21.10;41.10;;;;;;465615;252;1993;-45
2023/01/06 06:46:24;;;;;;;;;;;21.00;41.00;;;;;;475462;249;2157;-45
2023/01/06 06:48:25;;;;;;;;;;;21.10;41.20;;;;;;457917;257;1895;-44
2023/01/06 06:50:26;;;;;;;;;;;21.00;41.20;;;;;;465640;252;1727;-44
2023/01/06 06:52:28;;;;;;;;;;;21.10;41.10;;;;;;475444;249;3184;-44
2023/01/06 06:54:29;;;;;;;;;;;21.40;40.60;;;;;;457909;257;1810;-44
2023/01/06 06:56:30;;;;;;;;;;;21.70;40.10;;;;;;465423;252;2362;-45
2023/01/06 06:58:32;;;;;;;;;;;21.90;39.60;;;;;;475654;249;1734;-45
2023/01/06 07:00:33;;;;;;;;;;;22.00;39.20;;;;;;457941;256;1752;-44
2023/01/06 07:02:34;;;;;;;;;;;22.20;39.00;;;;;;465427;252;1694;-44
2023/01/06 07:04:36;;;;;;;;;;;22.30;38.70;;;;;;475618;249;1878;-45
2023/01/06 07:06:37;;;;;;;;;;;22.40;38.50;;;;;;457816;257;2198;-44
2023/01/06 07:08:38;;;;;;;;;;;22.50;38.20;;;;;;465621;252;1726;-44
2023/01/06 07:10:40;;;;;;;;;;;22.60;38.10;;;;;;475627;249;2223;-44
2023/01/06 07:12:41;;;;;;;;;;;22.70;37.90;;;;;;457854;255;2004;-45
2023/01/06 07:14:42;;;;;;;;;;;22.60;37.90;;;;;;465620;252;1729;-45
2023/01/06 07:16:44;;;;;;;;;;;22.60;38.00;;;;;;475514;249;1773;-45
2023/01/06 07:18:45;;;;;;;;;;;22.40;38.40;;;;;;457937;256;1455;-45
2023/01/06 07:20:46;;;;;;;;;;;22.10;38.80;;;;;;465520;252;1887;-45
2023/01/06 07:22:48;;;;;;;;;;;21.90;39.20;;;;;;475541;249;1931;-44
2023/01/06 07:24:49;;;;;;;;;;;21.70;39.50;;;;;;457966;257;2242;-44
2023/01/06 07:26:50;;;;;;;;;;;21.60;39.80;;;;;;465517;252;1962;-45
2023/01/06 07:28:52;;;;;;;;;;;21.50;39.90;;;;;;475626;249;1715;-45
2023/01/06 07:30:53;;;;;;;;;;;21.40;40.10;;;;;;457914;256;2052;-44
2023/01/06 07:32:54;;;;;;;;;;;21.40;40.20;;;;;;465590;252;2366;-44
2023/01/06 07:34:56;;;;;;;;;;;21.30;40.30;;;;;;475722;249;2093;-44
2023/01/06 07:36:57;;;;;;;;;;;21.20;40.40;;;;;;457787;257;1880;-45
2023/01/06 07:38:58;;;;;;;;;;;21.20;40.50;;;;;;465540;252;1692;-44
2023/01/06 07:41:00;;;;;;;;;;;21.10;40.50;;;;;;475515;249;2203;-44
2023/01/06 07:43:01;;;;;;;;;;;21.20;40.50;;;;;;457891;256;2071;-44
2023/01/06 07:45:02;;;;;;;;;;;21.50;40.00;;;;;;465587;252;2302;-45
2023/01/06 07:47:05;;;;;;;;;;;21.80;39.50;;;;;;475466;249;2388;-44
2023/01/06 07:49:05;;;;;;;;;;;22.00;38.90;;;;;;457982;256;1987;-45
2023/01/06 07:51:06;;;;;;;;;;;22.20;38.60;;;;;;465471;252;1933;-44
2023/01/06 07:53:08;;;;;;;;;;;22.30;38.30;;;;;;475588;249;1705;-45
2023/01/06 07:55:09;;;;;;;;;;;22.40;38.00;;;;;;457959;256;1867;-45
2023/01/06 07:57:10;;;;;;;;;;;22.60;37.90;;;;;;465427;252;2089;-45
2023/01/06 07:59:11;;;;;;;;;;;22.60;37.80;;;;;;475581;249;1747;-44
2023/01/06 08:01:13;;;;;;;;;;;22.60;37.80;;;;;;457940;256;1960;-44
2023/01/06 08:03:14;;;;;;;;;;;22.50;37.90;;;;;;465618;252;2112;-44
2023/01/06 08:05:16;;;;;;;;;;;22.20;38.20;;;;;;475549;249;2202;-44
2023/01/06 08:07:17;;;;;;;;;;;22.00;38.70;;;;;;457882;255;1937;-45
2023/01/06 08:09:18;;;;;;;;;;;21.90;39.00;;;;;;465780;252;2156;-45
2023/01/06 08:11:19;;;;;;;;;;;21.70;39.30;;;;;;475583;249;2015;-44
2023/01/06 08:13:21;;;;;;;;;;;21.60;39.60;;;;;;458038;256;1968;-44
2023/01/06 08:15:22;;;;;;;;;;;21.50;39.80;;;;;;465598;252;1876;-44
2023/01/06 08:17:23;;;;;;;;;;;21.40;39.90;;;;;;475617;249;2237;-44
2023/01/06 08:19:25;;;;;;;;;;;21.40;40.00;;;;;;457937;257;2163;-44
2023/01/06 08:21:26;;;;;;;;;;;21.30;40.10;;;;;;465635;252;1728;-45
2023/01/06 08:23:27;;;;;;;;;;;21.30;40.20;;;;;;475622;249;1728;-44
2023/01/06 08:25:29;;;;;;;;;;;21.20;40.30;;;;;;458119;256;2206;-44
2023/01/06 08:27:30;;;;;;;;;;;21.20;40.30;;;;;;465586;252;1951;-45
2023/01/06 08:29:31;;;;;;;;;;;21.20;40.40;;;;;;475665;249;2402;-44
2023/01/06 08:31:33;;;;;;;;;;;21.20;40.40;;;;;;457931;256;1702;-45
2023/01/06 08:33:34;;;;;;;;;;;21.10;40.50;;;;;;465727;252;1839;-44
2023/01/06 08:35:35;;;;;;;;;;;21.10;40.50;;;;;;475565;249;1838;-44
2023/01/06 08:37:37;;;;;;;;;;;21.10;40.50;;;;;;457982;256;2196;-44
2023/01/06 08:39:38;;;;;;;;;;;21.30;40.30;;;;;;465634;252;2236;-45
2023/01/06 08:41:39;;;;;;;;;;;21.60;39.70;;;;;;475658;249;2204;-45
2023/01/06 08:43:41;;;;;;;;;;;21.80;39.20;;;;;;457950;256;1727;-45
2023/01/06 08:45:42;;;;;;;;;;;22.00;38.80;;;;;;465548;252;2209;-44
2023/01/06 08:47:43;;;;;;;;;;;22.20;38.50;;;;;;475617;249;1712;-45
2023/01/06 08:49:45;;;;;;;;;;;22.40;38.30;;;;;;457943;256;1814;-44
2023/01/06 08:51:46;;;;;;;;;;;22.40;38.00;;;;;;465560;252;1790;-45
2023/01/06 08:53:47;;;;;;;;;;;22.50;37.80;;;;;;475642;249;1991;-45
2023/01/06 08:55:49;;;;;;;;;;;22.60;37.70;;;;;;457956;257;1737;-44
2023/01/06 08:57:50;;;;;;;;;;;22.70;37.50;;;;;;465615;252;1962;-45
2023/01/06 08:59:51;;;;;;;;;;;22.80;37.40;;;;;;475572;249;1712;-45
2023/01/06 09:01:53;;;;;;;;;;;22.80;37.30;;;;;;458069;256;1751;-45
2023/01/06 09:03:54;;;;;;;;;;;22.90;37.20;;;;;;465634;252;2704;-45
2023/01/06 09:05:55;;;;;;;;;;;22.90;37.10;;;;;;475685;249;2315;-44
2023/01/06 09:07:57;;;;;;;;;;;22.90;37.00;;;;;;457980;256;1874;-45
2023/01/06 09:09:58;;;;;;;;;;;23.00;37.00;;;;;;465644;252;1761;-45
2023/01/06 09:11:59;;;;;;;;;;;23.00;36.90;;;;;;475581;249;1725;-45
2023/01/06 09:14:00;;;;;;;;;;;23.10;36.90;;;;;;457937;257;1776;-44
2023/01/06 09:16:02;;;;;;;;;;;23.10;36.90;;;;;;465568;252;2662;-44
2023/01/06 09:18:03;;;;;;;;;;;23.10;36.80;;;;;;475687;249;2010;-45
2023/01/06 09:20:04;;;;;;;;;;;23.20;36.80;;;;;;457902;257;1751;-45
2023/01/06 09:22:06;;;;;;;;;;;23.20;36.70;;;;;;465608;252;2333;-45
2023/01/06 09:24:07;;;;;;;;;;;23.20;36.60;;;;;;475586;249;1865;-45
2023/01/06 09:26:09;;;;;;;;;;;23.30;36.60;;;;;;458019;256;2209;-44
2023/01/06 09:28:10;;;;;;;;;;;23.30;36.60;;;;;;465589;252;1700;-44
2023/01/06 09:30:11;;;;;;;;;;;23.30;36.50;;;;;;475555;249;2009;-45
2023/01/06 09:32:13;;;;;;;;;;;23.30;36.50;;;;;;457949;255;1709;-45
2023/01/06 09:34:14;;;;;;;;;;;23.40;36.50;;;;;;465586;252;1740;-44
2023/01/06 09:36:15;;;;;;;;;;;23.40;36.40;;;;;;475410;249;1909;-44
2023/01/06 09:38:17;;;;;;;;;;;23.40;36.40;;;;;;457983;256;1850;-45
2023/01/06 09:40:18;;;;;;;;;;;23.40;36.30;;;;;;464098;252;1830;-44
2023/01/06 09:42:19;;;;;;;;;;;23.40;36.40;;;;;;475273;249;2152;-44
2023/01/06 09:44:21;;;;;;;;;;;23.50;36.40;;;;;;458001;256;2248;-45
2023/01/06 09:46:22;;;;;;;;;;;23.30;36.40;;;;;;465474;252;2928;-44
2023/01/06 09:48:24;;;;;;;;;;;23.10;36.90;;;;;;475578;249;1887;-44
2023/01/06 09:50:25;;;;;;;;;;;22.80;37.30;;;;;;457916;257;1766;-45
2023/01/06 09:52:26;;;;;;;;;;;22.60;37.70;;;;;;465433;252;1883;-45
2023/01/06 09:54:28;;;;;;;;;;;22.50;38.10;;;;;;475615;249;1947;-44
2023/01/06 09:56:29;;;;;;;;;;;22.30;38.20;;;;;;457771;257;2053;-44
2023/01/06 09:58:30;;;;;;;;;;;22.20;38.40;;;;;;465473;252;1886;-44
2023/01/06 10:00:32;;;;;;;;;;;22.20;38.70;;;;;;475639;249;2159;-45
2023/01/06 10:02:33;;;;;;;;;;;22.10;38.80;;;;;;457815;256;1725;-44
2023/01/06 10:04:34;;;;;;;;;;;22.00;38.90;;;;;;465543;252;2068;-44
2023/01/06 10:06:36;;;;;;;;;;;22.00;38.90;;;;;;475424;249;2688;-44
2023/01/06 10:08:37;;;;;;;;;;;22.00;39.00;;;;;;457928;255;1787;-45
2023/01/06 10:10:38;;;;;;;;;;;22.00;38.90;;;;;;465530;252;1885;-44
2023/01/06 10:12:40;;;;;;;;;;;22.00;38.90;;;;;;475491;249;1690;-44
2023/01/06 10:14:41;;;;;;;;;;;22.00;39.00;;;;;;457931;257;1978;-45
2023/01/06 10:16:42;;;;;;;;;;;22.00;38.90;;;;;;465452;252;1738;-44
2023/01/06 10:18:44;;;;;;;;;;;22.00;38.90;;;;;;475673;249;1698;-45
2023/01/06 10:20:45;;;;;;;;;;;22.00;38.90;;;;;;457861;257;1800;-44
2023/01/06 10:22:46;;;;;;;;;;;22.00;38.90;;;;;;465518;252;2592;-44
2023/01/06 10:24:48;;;;;;;;;;;22.00;38.90;;;;;;475568;249;1720;-45
2023/01/06 10:26:49;;;;;;;;;;;22.00;38.90;;;;;;457825;257;2240;-45
2023/01/06 10:28:52;;;;;;;;;;;22.00;38.90;;;;;;465666;252;1867;-45
2023/01/06 10:30:52;;;;;;;;;;;22.00;39.00;;;;;;475489;249;2109;-45
2023/01/06 10:32:54;;;;;;;;;;;21.90;39.00;;;;;;457994;256;1811;-44
2023/01/06 10:34:55;;;;;;;;;;;21.90;39.10;;;;;;465535;252;1799;-44
2023/01/06 10:36:57;;;;;;;;;;;21.90;39.20;;;;;;475461;249;2059;-44
2023/01/06 10:38:58;;;;;;;;;;;21.80;39.20;;;;;;457989;256;2107;-44
2023/01/06 10:40:59;;;;;;;;;;;21.80;39.20;;;;;;465541;252;1982;-45
2023/01/06 10:43:02;;;;;;;;;;;21.80;39.20;;;;;;475556;249;2102;-44
2023/01/06 10:45:02;;;;;;;;;;;21.80;39.30;;;;;;457919;259;2162;-44
2023/01/06 10:47:03;;;;;;;;;;;21.70;39.30;;;;;;465569;252;2209;-44
2023/01/06 10:49:05;;;;;;;;;;;21.80;39.40;;;;;;475634;249;2140;-44
2023/01/06 10:51:06;;;;;;;;;;;21.80;39.40;;;;;;457862;256;1752;-44
2023/01/06 10:53:07;;;;;;;;;;;21.80;39.30;;;;;;465572;252;2224;-45
2023/01/06 10:55:08;;;;;;;;;;;21.80;39.20;;;;;;475625;249;2007;-44
2023/01/06 10:57:10;;;;;;;;;;;21.80;39.20;;;;;;457804;257;1946;-45
2023/01/06 10:59:11;;;;;;;;;;;21.80;39.30;;;;;;465604;252;1902;-44
2023/01/06 11:01:14;;;;;;;;;;;21.80;39.20;;;;;;475587;249;1755;-44
2023/01/06 11:03:14;;;;;;;;;;;21.80;39.20;;;;;;457894;259;1765;-44
2023/01/06 11:05:16;;;;;;;;;;;21.90;39.30;;;;;;465567;252;1840;-44
2023/01/06 11:07:17;;;;;;;;;;;21.90;39.20;;;;;;475527;249;2584;-44
2023/01/06 11:09:18;;;;;;;;;;;21.90;39.20;;;;;;457933;256;1751;-44
2023/01/06 11:11:19;;;;;;;;;;;21.90;39.10;;;;;;465530;252;1677;-44
2023/01/06 11:13:21;;;;;;;;;;;21.90;39.00;;;;;;457998;256;1760;-44
2023/01/06 11:15:22;;;;;;;;;;;21.90;39.00;;;;;;475591;249;2093;-44
2023/01/06 11:17:23;;;;;;;;;;;21.90;39.00;;;;;;457816;257;1639;-44
2023/01/06 11:19:25;;;;;;;;;;;21.90;39.10;;;;;;465554;252;1967;-44
2023/01/06 11:21:26;;;;;;;;;;;21.90;39.20;;;;;;475523;249;2139;-44
2023/01/06 11:23:28;;;;;;;;;;;21.90;39.10;;;;;;457980;256;2122;-44
2023/01/06 11:25:32;;;;;;;;;;;21.90;39.20;;;;;;465629;252;2248;-44
2023/01/06 11:27:31;;;;;;;;;;;21.90;39.20;;;;;;465326;255;2172;-45
2023/01/06 11:29:32;;;;;;;;;;;21.90;39.10;;;;;;475706;249;2473;-45
2023/01/06 11:31:33;;;;;;;;;;;21.90;39.20;;;;;;457906;256;1745;-44
2023/01/06 11:33:35;;;;;;;;;;;21.90;39.10;;;;;;465698;252;2162;-44
2023/01/06 11:35:36;;;;;;;;;;;21.90;39.10;;;;;;475623;249;2232;-44
2023/01/06 11:37:37;;;;;;;;;;;21.90;39.10;;;;;;457828;257;1759;-44
2023/01/06 11:39:39;;;;;;;;;;;21.80;39.20;;;;;;465640;252;1746;-45
2023/01/06 11:41:40;;;;;;;;;;;21.80;39.20;;;;;;475537;249;1948;-44
2023/01/06 11:43:42;;;;;;;;;;;21.80;39.20;;;;;;458037;256;1671;-45
2023/01/06 11:45:43;;;;;;;;;;;21.70;39.30;;;;;;465606;252;1729;-45
2023/01/06 11:47:44;;;;;;;;;;;21.80;39.40;;;;;;475497;249;2581;-44
2023/01/06 11:49:45;;;;;;;;;;;21.70;39.40;;;;;;458052;256;2291;-44
2023/01/06 11:51:47;;;;;;;;;;;21.70;39.50;;;;;;465601;252;1731;-44
2023/01/06 11:53:48;;;;;;;;;;;21.70;39.50;;;;;;475686;249;2002;-44
2023/01/06 11:55:50;;;;;;;;;;;21.60;39.60;;;;;;457918;256;2261;-44
2023/01/06 11:57:51;;;;;;;;;;;21.60;39.60;;;;;;465692;252;2095;-45
2023/01/06 11:59:52;;;;;;;;;;;21.60;39.70;;;;;;475595;249;1849;-44